Time;durP1;ratioP1;P1;durP2;ratioP2;P2;SDS_P1;SDS_P2;PMS_P1;PMS_P2;Temp;Humidity;BMP_temperature;BMP_pressure;BME280_temperature;BME280_humidity;BME280_pressure;Samples;Min_cycle;Max_cycle;Signal;HPM_P1;HPM_P2
2022/07/29 00:01:21;;;;;;;6.03;2.70;;;;;;;25.51;50.10;99952.34;4937295;29;20202;-70
2022/07/29 00:03:48;;;;;;;7.40;2.77;;;;;;;25.51;50.46;99952.34;4937266;28;20195;-70
2022/07/29 00:06:14;;;;;;;4.80;2.87;;;;;;;25.51;50.25;99946.56;4953821;29;20643;-70
2022/07/29 00:08:39;;;;;;;4.53;2.33;;;;;;;25.50;50.81;99950.72;4953345;29;20440;-70
2022/07/29 00:11:05;;;;;;;6.60;3.07;;;;;;;25.51;49.72;99937.91;4953161;29;20415;-70
2022/07/29 00:13:30;;;;;;;6.10;2.53;;;;;;;25.51;50.51;99934.19;4953158;29;20179;-70
2022/07/29 00:15:56;;;;;;;6.67;2.77;;;;;;;25.51;50.08;99935.00;4936464;29;20302;-70
2022/07/29 00:18:21;;;;;;;6.40;2.93;;;;;;;25.49;50.31;99937.50;4935899;29;20772;-70
2022/07/29 00:20:46;;;;;;;3.33;2.20;;;;;;;25.50;50.34;99932.56;4936070;29;20254;-70
2022/07/29 00:23:12;;;;;;;5.53;3.23;;;;;;;25.51;50.50;99939.97;4953142;29;20237;-70
2022/07/29 00:25:37;;;;;;;4.90;2.80;;;;;;;25.49;50.64;99928.84;4953325;29;20175;-70
2022/07/29 00:28:03;;;;;;;8.17;2.77;;;;;;;25.50;50.74;99944.13;4938134;29;20188;-70
2022/07/29 00:30:29;;;;;;;3.53;2.30;;;;;;;25.48;50.38;99935.06;4917638;29;20207;-70
2022/07/29 00:32:54;;;;;;;4.10;2.90;;;;;;;25.47;50.11;99942.09;4902118;29;20196;-70
2022/07/29 00:38:03;;;;;;;6.07;2.90;;;;;;;25.46;50.42;99932.63;4927881;29;20190;-71
2022/07/29 00:40:29;;;;;;;4.20;2.97;;;;;;;25.47;49.94;99937.13;4931448;29;20990;-70
2022/07/29 00:42:54;;;;;;;5.07;3.40;;;;;;;25.47;50.17;99934.25;4936870;29;20546;-70
2022/07/29 00:45:20;;;;;;;8.60;2.37;;;;;;;25.47;50.22;99931.34;4936622;29;20634;-70
2022/07/29 00:47:45;;;;;;;5.73;2.73;;;;;;;25.47;50.82;99931.34;4921165;29;20187;-70
2022/07/29 00:50:11;;;;;;;4.97;3.03;;;;;;;25.48;50.70;99935.88;4953355;29;20182;-70
2022/07/29 00:52:37;;;;;;;7.70;2.63;;;;;;;25.48;50.18;99932.97;4921438;29;20194;-70
2022/07/29 00:55:04;;;;;;;3.73;2.30;;;;;;;25.47;50.64;99934.25;4937319;29;20462;-70
2022/07/29 00:57:29;;;;;;;5.40;2.53;;;;;;;25.49;51.03;99931.72;4920856;29;20434;-70
2022/07/29 00:59:55;;;;;;;5.77;2.43;;;;;;;25.48;50.90;99946.63;4935946;29;20469;-71
2022/07/29 01:02:21;;;;;;;5.57;2.70;;;;;;;25.48;50.45;99940.84;4936226;28;20187;-70
2022/07/29 01:04:46;;;;;;;4.60;2.60;;;;;;;25.48;50.64;99941.66;4933150;29;20190;-70
2022/07/29 01:07:11;;;;;;;4.83;2.43;;;;;;;25.48;50.39;99937.97;4935434;29;20187;-70
2022/07/29 01:09:37;;;;;;;3.20;2.10;;;;;;;25.48;50.48;99944.56;4950511;29;20174;-71
2022/07/29 01:12:03;;;;;;;4.67;2.80;;;;;;;25.47;50.64;99933.41;4951119;29;20179;-70
2022/07/29 01:14:28;;;;;;;3.90;2.77;;;;;;;25.48;50.37;99940.84;4935083;29;20179;-70
2022/07/29 01:17:10;;;;;;;5.30;2.80;;;;;;;25.46;50.59;99938.41;4934827;29;20638;-70
2022/07/29 01:19:57;;;;;;;7.03;2.80;;;;;;;25.45;50.39;99935.94;4934512;29;20210;-70
2022/07/29 01:22:34;;;;;;;7.60;2.87;;;;;;;25.42;50.25;99940.53;4953763;28;20431;-71
2022/07/29 01:25:03;;;;;;;6.10;3.07;;;;;;;25.41;50.55;99935.16;4952943;28;20421;-70
2022/07/29 01:27:45;;;;;;;5.77;2.80;;;;;;;25.42;50.77;99936.78;4953547;28;20435;-70
2022/07/29 01:30:11;;;;;;;3.50;2.70;;;;;;;25.41;50.41;99936.00;4935512;29;20423;-70
2022/07/29 01:32:37;;;;;;;4.90;3.00;;;;;;;25.42;50.64;99937.63;4921171;28;20442;-71
2022/07/29 01:35:10;;;;;;;3.53;2.90;;;;;;;25.42;50.94;99934.75;4934367;29;20234;-70
2022/07/29 01:37:38;;;;;;;4.90;2.97;;;;;;;25.40;50.45;99934.38;4934455;29;20251;-70
2022/07/29 01:40:04;;;;;;;5.97;2.50;;;;;;;25.42;50.75;99942.56;4950294;29;20458;-70
2022/07/29 01:42:42;;;;;;;6.20;3.30;;;;;;;25.40;50.63;99940.16;4935334;29;20437;-70
2022/07/29 01:45:11;;;;;;;5.83;2.70;;;;;;;25.40;50.53;99936.44;4951807;29;20179;-71
2022/07/29 01:47:45;;;;;;;3.80;2.60;;;;;;;25.39;50.40;99935.59;4952778;29;20419;-70
2022/07/29 01:50:12;;;;;;;4.80;2.90;;;;;;;25.40;50.36;99934.38;4951379;29;20443;-71
2022/07/29 01:52:42;;;;;;;5.60;2.63;;;;;;;25.41;50.56;99935.16;4919989;29;20434;-71
2022/07/29 01:55:12;;;;;;;4.40;3.00;;;;;;;25.40;50.66;99931.47;4934795;29;20983;-70
2022/07/29 01:57:37;;;;;;;6.50;3.20;;;;;;;25.39;50.73;99935.59;4918313;29;20433;-70
2022/07/29 02:00:04;;;;;;;10.87;3.10;;;;;;;25.39;50.64;99941.38;4949436;29;20545;-70
2022/07/29 02:02:29;;;;;;;4.73;3.07;;;;;;;25.38;50.63;99936.06;4933170;29;20262;-70
2022/07/29 02:04:55;;;;;;;4.50;2.40;;;;;;;25.38;51.11;99942.63;4949863;29;20435;-71
2022/07/29 02:07:21;;;;;;;4.43;2.90;;;;;;;25.37;50.65;99929.44;4949595;29;20202;-70
2022/07/29 02:09:47;;;;;;;4.50;2.60;;;;;;;25.37;50.70;99941.00;4933795;29;20222;-70
2022/07/29 02:12:13;;;;;;;6.80;2.73;;;;;;;25.36;50.45;99936.50;4935631;29;20466;-71
2022/07/29 02:14:42;;;;;;;4.93;2.97;;;;;;;25.35;50.61;99942.69;4934783;29;20187;-70
2022/07/29 02:17:07;;;;;;;6.60;2.90;;;;;;;25.35;51.02;99943.53;4950970;28;20218;-70
2022/07/29 02:19:33;;;;;;;7.80;2.73;;;;;;;25.34;50.74;99943.97;4933138;29;21045;-71
2022/07/29 02:21:58;;;;;;;8.13;2.73;;;;;;;25.33;50.89;99940.25;4933517;29;20186;-70
2022/07/29 02:24:24;;;;;;;4.67;2.33;;;;;;;25.34;51.00;99938.97;4918634;29;20870;-70
2022/07/29 02:26:51;;;;;;;5.03;2.80;;;;;;;25.35;51.21;99942.69;4945538;29;20290;-70
2022/07/29 02:29:16;;;;;;;4.47;2.63;;;;;;;25.36;50.72;99941.44;4916260;29;20863;-71
2022/07/29 02:31:43;;;;;;;6.10;3.13;;;;;;;25.35;51.03;99940.66;4915557;29;20434;-71
2022/07/29 02:34:09;;;;;;;4.50;3.10;;;;;;;25.36;50.73;99944.34;4934514;29;20267;-70
2022/07/29 02:36:34;;;;;;;5.67;3.00;;;;;;;25.34;51.16;99941.88;4934874;29;20426;-71
2022/07/29 02:39:00;;;;;;;5.20;2.50;;;;;;;25.34;51.13;99947.66;4950791;29;20519;-69
2022/07/29 02:41:48;;;;;;;4.00;2.90;;;;;;;25.33;51.25;99946.03;4934628;29;20211;-70
2022/07/29 02:44:15;;;;;;;4.60;3.00;;;;;;;25.34;51.19;99949.75;4951857;28;20183;-70
2022/07/29 02:46:47;;;;;;;5.97;3.10;;;;;;;25.33;51.01;99945.22;4940960;29;20462;-71
2022/07/29 02:49:16;;;;;;;5.20;2.60;;;;;;;25.33;50.60;99953.91;4930988;29;20433;-71
2022/07/29 02:51:45;;;;;;;4.10;2.70;;;;;;;25.31;50.56;99951.44;4917890;29;20473;-70
2022/07/29 02:54:15;;;;;;;4.80;2.60;;;;;;;25.28;50.41;99955.19;4933531;29;20434;-70
2022/07/29 02:56:40;;;;;;;3.40;2.40;;;;;;;25.27;50.48;99967.16;4917747;29;20466;-71
2022/07/29 02:59:08;;;;;;;4.60;2.83;;;;;;;25.27;50.77;99970.88;4916718;29;21279;-70
2022/07/29 03:01:34;;;;;;;4.40;2.60;;;;;;;25.27;50.64;99973.78;4933210;29;20203;-70
2022/07/29 03:04:01;;;;;;;6.20;2.90;;;;;;;25.28;50.91;99971.72;4901830;29;20481;-70
2022/07/29 03:06:27;;;;;;;5.47;3.00;;;;;;;25.28;51.01;99965.94;4934413;29;20741;-71
2022/07/29 03:08:52;;;;;;;6.27;3.17;;;;;;;25.28;50.88;99969.63;4934379;29;20427;-71
2022/07/29 03:11:17;;;;;;;6.40;3.23;;;;;;;25.30;50.83;99966.31;4902557;29;20183;-70
2022/07/29 03:13:43;;;;;;;3.43;2.67;;;;;;;25.29;51.04;99976.25;4933127;29;20202;-71
2022/07/29 03:16:09;;;;;;;5.60;3.03;;;;;;;25.28;50.80;99975.41;4916686;29;20511;-70
2022/07/29 03:18:34;;;;;;;3.60;2.43;;;;;;;25.29;50.86;99970.47;4917136;29;20776;-70
2022/07/29 03:21:00;;;;;;;5.87;2.60;;;;;;;25.28;50.97;99980.38;4916676;29;20865;-70
2022/07/29 03:23:27;;;;;;;3.70;2.43;;;;;;;25.28;51.23;99968.84;4917042;29;20524;-70
2022/07/29 03:25:53;;;;;;;5.67;3.13;;;;;;;25.27;51.11;99981.63;4951507;28;20187;-70
2022/07/29 03:28:19;;;;;;;5.47;3.40;;;;;;;25.27;50.91;99976.66;4921748;29;20460;-70
2022/07/29 03:30:44;;;;;;;4.10;3.00;;;;;;;25.27;51.16;99976.66;4938234;29;20211;-70
2022/07/29 03:33:10;;;;;;;13.30;3.40;;;;;;;25.26;51.00;99975.03;4945218;28;20912;-70
2022/07/29 03:35:35;;;;;;;4.57;2.93;;;;;;;25.27;50.90;99982.44;4940708;28;20266;-70
2022/07/29 03:38:01;;;;;;;5.53;3.23;;;;;;;25.26;50.63;99975.03;4941344;28;20175;-70
2022/07/29 03:40:32;;;;;;;6.10;3.00;;;;;;;25.25;50.92;99984.97;4956424;28;20198;-70
2022/07/29 03:42:58;;;;;;;4.50;3.30;;;;;;;25.25;50.87;99984.09;4956918;28;20233;-70
2022/07/29 03:45:23;;;;;;;5.17;3.07;;;;;;;25.24;51.16;99983.28;4957182;28;20430;-70
2022/07/29 03:47:50;;;;;;;6.03;3.03;;;;;;;25.24;51.06;99988.25;4941185;28;20174;-70
2022/07/29 03:50:16;;;;;;;6.40;3.30;;;;;;;25.20;51.01;99985.41;4957249;28;20182;-70
2022/07/29 03:52:42;;;;;;;7.77;3.07;;;;;;;25.22;50.77;99988.69;4941199;28;21163;-69
2022/07/29 03:55:08;;;;;;;4.53;3.20;;;;;;;25.21;50.79;99995.72;4956866;28;20862;-70
2022/07/29 03:57:33;;;;;;;6.10;3.00;;;;;;;25.21;51.00;99989.94;4940645;28;20182;-70
2022/07/29 03:59:58;;;;;;;5.30;3.00;;;;;;;25.24;51.05;99991.94;4940552;28;20468;-70
2022/07/29 04:02:25;;;;;;;4.30;3.10;;;;;;;25.23;51.30;99996.09;4940559;28;20186;-70
2022/07/29 04:04:50;;;;;;;3.97;3.07;;;;;;;25.22;51.08;99991.56;4957328;28;20257;-71
2022/07/29 04:07:16;;;;;;;5.37;3.50;;;;;;;25.23;50.80;99993.19;4957061;28;20429;-70
2022/07/29 04:09:41;;;;;;;4.67;3.10;;;;;;;25.23;50.77;100004.75;4939379;28;20657;-70
2022/07/29 04:12:07;;;;;;;4.93;3.30;;;;;;;25.18;50.59;99993.69;4938978;28;20213;-71
2022/07/29 04:14:33;;;;;;;4.10;3.13;;;;;;;25.18;51.02;100002.34;4955641;28;20855;-70
2022/07/29 04:16:59;;;;;;;5.17;3.20;;;;;;;25.18;51.18;99999.47;4939225;28;20182;-70
2022/07/29 04:19:24;;;;;;;7.83;3.30;;;;;;;25.18;51.06;100008.13;4939272;28;20285;-71
2022/07/29 04:21:49;;;;;;;4.10;3.00;;;;;;;25.17;50.97;100015.16;4972431;28;21231;-70
2022/07/29 04:24:15;;;;;;;5.27;3.20;;;;;;;25.15;50.64;100016.84;4955446;28;20193;-71
2022/07/29 04:26:41;;;;;;;5.97;2.97;;;;;;;25.16;51.01;100022.22;4933109;29;20199;-70
2022/07/29 04:29:06;;;;;;;4.60;3.30;;;;;;;25.14;50.84;100016.03;4902291;29;20235;-70
2022/07/29 04:31:31;;;;;;;10.13;4.40;;;;;;;25.16;50.77;100024.25;4917777;29;20172;-71
2022/07/29 04:33:57;;;;;;;7.10;3.53;;;;;;;25.16;51.46;100019.31;4943866;28;20206;-69
2022/07/29 04:36:22;;;;;;;7.97;3.20;;;;;;;25.17;50.98;100023.00;4933384;28;20198;-69
2022/07/29 04:38:48;;;;;;;5.40;3.37;;;;;;;25.17;50.86;100020.94;4951939;29;20179;-69
2022/07/29 04:41:13;;;;;;;5.20;3.50;;;;;;;25.16;50.91;100025.09;4936261;29;20667;-70
2022/07/29 04:43:39;;;;;;;7.13;3.60;;;;;;;25.17;51.25;100018.06;4941954;29;20246;-70
2022/07/29 04:46:06;;;;;;;4.80;3.77;;;;;;;25.18;50.90;100025.47;4920037;29;20201;-70
2022/07/29 04:48:31;;;;;;;5.90;3.07;;;;;;;25.19;50.81;100027.09;4936074;29;20230;-70
2022/07/29 04:50:57;;;;;;;5.10;3.87;;;;;;;25.19;51.40;100017.63;4938807;29;20430;-71
2022/07/29 04:53:22;;;;;;;6.03;3.67;;;;;;;25.19;51.14;100027.09;4936631;29;20647;-71
2022/07/29 04:55:48;;;;;;;5.00;3.27;;;;;;;25.18;50.95;100025.47;4921236;29;20300;-70
2022/07/29 04:58:13;;;;;;;5.73;3.23;;;;;;;25.19;50.89;100020.53;4936814;29;20182;-70
2022/07/29 05:00:39;;;;;;;4.33;2.80;;;;;;;25.19;51.17;100030.00;4935642;29;20206;-70
2022/07/29 05:03:04;;;;;;;4.93;3.13;;;;;;;25.21;50.85;100032.44;4932638;29;20187;-71
2022/07/29 05:05:30;;;;;;;7.47;3.03;;;;;;;25.20;50.95;100037.44;4936756;29;20706;-70
2022/07/29 05:07:56;;;;;;;6.63;3.70;;;;;;;25.21;50.81;100035.34;4936232;29;20654;-70
2022/07/29 05:10:21;;;;;;;4.30;3.27;;;;;;;25.22;50.67;100036.97;4904286;29;20184;-70
2022/07/29 05:12:47;;;;;;;4.60;3.60;;;;;;;25.21;50.82;100030.41;4936907;29;20427;-70
2022/07/29 05:15:12;;;;;;;5.17;3.20;;;;;;;25.21;50.91;100044.00;4936040;29;20203;-70
2022/07/29 05:17:37;;;;;;;3.80;3.03;;;;;;;25.20;50.74;100039.50;4936185;29;20182;-71
2022/07/29 05:20:04;;;;;;;4.27;2.70;;;;;;;25.18;50.92;100034.13;4936059;29;20216;-70
2022/07/29 05:22:30;;;;;;;5.47;2.87;;;;;;;25.19;50.79;100041.56;4920513;29;20250;-71
2022/07/29 05:24:55;;;;;;;5.93;3.40;;;;;;;25.19;50.97;100038.66;4953570;29;20423;-70
2022/07/29 05:27:20;;;;;;;4.13;3.60;;;;;;;25.19;50.84;100043.63;4935760;29;20194;-70
2022/07/29 05:29:46;;;;;;;4.10;2.87;;;;;;;25.17;50.67;100035.41;4953394;29;20171;-70
2022/07/29 05:32:12;;;;;;;5.90;3.17;;;;;;;25.19;50.63;100043.63;4936049;29;20179;-69
2022/07/29 05:34:38;;;;;;;5.77;3.50;;;;;;;25.18;50.80;100042.81;4953970;28;20246;-70
2022/07/29 05:37:03;;;;;;;6.07;3.40;;;;;;;25.18;51.08;100054.38;4954774;28;20472;-70
2022/07/29 05:39:28;;;;;;;4.53;3.37;;;;;;;25.17;50.85;100054.78;4954198;28;20858;-71
2022/07/29 05:41:54;;;;;;;4.83;3.10;;;;;;;25.17;51.20;100052.72;4954693;28;20531;-70
2022/07/29 05:44:19;;;;;;;7.70;3.70;;;;;;;25.14;50.97;100070.13;4937545;28;20185;-70
2022/07/29 05:46:45;;;;;;;4.20;2.70;;;;;;;25.12;51.19;100067.66;4953293;28;20182;-70
2022/07/29 05:49:10;;;;;;;6.93;3.40;;;;;;;25.09;51.33;100079.25;4952523;28;20189;-70
2022/07/29 05:51:36;;;;;;;6.40;3.00;;;;;;;25.11;51.37;100076.75;4953050;28;20174;-70
2022/07/29 05:54:01;;;;;;;6.83;3.70;;;;;;;25.09;51.04;100077.19;4921060;28;20333;-70
2022/07/29 05:56:27;;;;;;;3.80;3.00;;;;;;;25.12;50.90;100079.22;4952896;28;20182;-70
2022/07/29 05:58:52;;;;;;;4.77;3.30;;;;;;;25.14;51.26;100081.69;4938085;28;20673;-71
2022/07/29 06:01:18;;;;;;;8.57;4.20;;;;;;;25.15;51.11;100081.25;4954135;28;20198;-70
2022/07/29 06:03:43;;;;;;;6.10;3.53;;;;;;;25.15;51.19;100078.38;4939027;28;20190;-70
2022/07/29 06:06:09;;;;;;;6.40;3.40;;;;;;;25.15;51.33;100086.19;4938458;28;20632;-70
2022/07/29 06:08:36;;;;;;;5.30;3.10;;;;;;;25.14;51.15;100082.47;4954163;28;20720;-69
2022/07/29 06:11:14;;;;;;;6.00;3.20;;;;;;;25.16;51.07;100084.94;5117563;27;20371;-62
2022/07/29 06:13:40;;;;;;;6.53;3.23;;;;;;;25.16;50.82;100085.78;5108438;28;20914;-62
2022/07/29 06:16:05;;;;;;;4.90;3.43;;;;;;;25.17;51.13;100083.69;5108021;28;20178;-62
2022/07/29 06:18:31;;;;;;;6.17;3.63;;;;;;;25.17;51.01;100084.53;5108311;28;20192;-62
2022/07/29 06:20:56;;;;;;;9.70;3.97;;;;;;;25.15;50.78;100084.16;5108257;28;20180;-62
2022/07/29 06:23:22;;;;;;;4.77;3.37;;;;;;;25.15;50.86;100084.16;5108318;28;20173;-62
2022/07/29 06:25:48;;;;;;;5.13;3.23;;;;;;;25.13;50.40;100089.50;5108371;28;20181;-62
2022/07/29 06:28:13;;;;;;;4.10;3.23;;;;;;;25.10;50.60;100081.72;5107727;28;20191;-62
2022/07/29 06:30:39;;;;;;;7.03;3.30;;;;;;;25.11;50.53;100082.53;5099559;28;20452;-62
2022/07/29 06:33:04;;;;;;;5.57;3.50;;;;;;;25.10;50.18;100081.72;5093828;28;20178;-62
2022/07/29 06:35:30;;;;;;;5.37;3.30;;;;;;;25.10;50.74;100081.72;5097661;28;20190;-62
2022/07/29 06:37:55;;;;;;;6.00;3.67;;;;;;;25.12;50.47;100082.09;5098540;28;20182;-62
2022/07/29 06:43:04;;;;;;;5.77;3.93;;;;;;;25.05;50.21;100087.97;5107755;28;20666;-62
2022/07/29 06:45:33;;;;;;;6.07;3.80;;;;;;;25.07;50.32;100091.25;5108139;28;20420;-62
2022/07/29 06:47:58;;;;;;;5.23;3.73;;;;;;;25.07;49.64;100091.25;5092441;28;20218;-62
2022/07/29 06:50:24;;;;;;;8.37;3.67;;;;;;;25.09;50.10;100090.81;5090079;28;20528;-62
2022/07/29 06:52:49;;;;;;;9.83;3.23;;;;;;;25.08;50.30;100092.88;5087371;28;20585;-62
2022/07/29 06:55:14;;;;;;;4.60;3.37;;;;;;;25.08;50.18;100098.66;5087322;28;20171;-62
2022/07/29 06:57:40;;;;;;;6.80;3.37;;;;;;;24.67;50.75;100092.09;5092732;28;20665;-62
2022/07/29 07:00:07;;;;;;;4.37;3.20;;;;;;;25.01;51.38;100092.13;5104792;28;20170;-62
2022/07/29 07:02:32;;;;;;;10.43;4.20;;;;;;;25.44;53.31;100096.19;5105469;28;20226;-62
2022/07/29 07:04:58;;;;;;;33.37;6.17;;;;;;;25.84;53.97;100101.00;5105620;28;20904;-62
2022/07/29 07:07:24;;;;;;;95.60;9.37;;;;;;;25.69;52.72;100100.38;5105028;28;20173;-63
2022/07/29 07:09:49;;;;;;;97.40;8.60;;;;;;;25.55;53.70;100100.59;5098122;28;20476;-63
2022/07/29 07:12:15;;;;;;;66.53;7.60;;;;;;;25.37;53.02;100102.88;5099740;28;20213;-63
2022/07/29 07:14:40;;;;;;;55.43;6.60;;;;;;;25.37;52.92;100107.81;5104322;28;20269;-63
2022/07/29 07:17:06;;;;;;;53.87;5.73;;;;;;;25.34;52.09;100109.50;5103794;28;20196;-64
2022/07/29 07:19:32;;;;;;;23.50;4.50;;;;;;;25.27;51.66;100109.59;5100277;28;20170;-63
2022/07/29 07:21:57;;;;;;;15.20;4.63;;;;;;;25.32;51.89;100114.91;5095021;28;20570;-64
2022/07/29 07:24:23;;;;;;;25.10;4.37;;;;;;;25.24;51.35;100118.28;5090063;28;20178;-64
2022/07/29 07:26:48;;;;;;;8.50;4.70;;;;;;;25.29;50.95;100117.84;5091314;28;20174;-64
2022/07/29 07:29:13;;;;;;;16.50;5.30;;;;;;;25.01;50.36;100123.91;5085848;28;20259;-63
2022/07/29 07:31:39;;;;;;;7.80;3.70;;;;;;;25.01;51.52;100127.63;5082346;28;20585;-63
2022/07/29 07:34:04;;;;;;;11.73;4.30;;;;;;;25.01;51.91;100123.91;5084231;28;20179;-64
2022/07/29 07:36:30;;;;;;;11.73;4.40;;;;;;;25.13;51.24;100132.06;5092058;28;20275;-64
2022/07/29 07:38:55;;;;;;;6.47;4.13;;;;;;;25.19;50.85;100127.44;5091011;28;20712;-64
2022/07/29 07:41:21;;;;;;;9.73;4.50;;;;;;;25.21;50.47;100128.66;5090426;28;21361;-64
2022/07/29 07:43:46;;;;;;;5.90;4.03;;;;;;;25.17;50.53;100116.31;5091879;28;20220;-64
2022/07/29 07:46:12;;;;;;;7.40;3.40;;;;;;;25.18;50.71;100117.94;5091668;28;20174;-63
2022/07/29 07:48:37;;;;;;;6.50;3.73;;;;;;;25.20;50.14;100120.41;5077466;28;20221;-63
2022/07/29 07:51:03;;;;;;;6.77;4.30;;;;;;;25.15;50.74;100124.59;5080228;28;20209;-63
2022/07/29 07:53:29;;;;;;;6.67;3.53;;;;;;;25.20;50.75;100114.63;5071104;28;20179;-64
2022/07/29 07:55:55;;;;;;;11.90;4.00;;;;;;;25.17;51.64;100127.03;5073775;28;20191;-64
2022/07/29 07:58:20;;;;;;;10.47;4.90;;;;;;;25.21;51.77;100128.66;5084617;28;20488;-63
2022/07/29 08:00:45;;;;;;;12.00;4.83;;;;;;;25.33;51.97;100125.22;5089268;28;20182;-63
2022/07/29 08:03:13;;;;;;;14.47;4.50;;;;;;;25.44;51.86;100131.69;5090875;28;20182;-63
2022/07/29 08:05:39;;;;;;;9.63;4.13;;;;;;;25.41;51.68;100125.94;5091329;28;20637;-63
2022/07/29 08:08:04;;;;;;;11.77;4.40;;;;;;;25.36;52.38;100123.53;5082529;28;20432;-63
2022/07/29 08:13:15;;;;;;;9.23;4.30;;;;;;;25.02;51.33;100137.94;5090675;28;20194;-63
2022/07/29 08:15:41;;;;;;;9.53;4.70;;;;;;;25.22;51.99;100143.91;5090804;28;20428;-63
2022/07/29 08:18:07;;;;;;;8.23;3.77;;;;;;;25.27;51.43;100132.72;5088543;28;20174;-63
2022/07/29 08:20:35;;;;;;;6.43;4.20;;;;;;;25.25;51.46;100143.06;5075625;28;20502;-63
2022/07/29 08:23:00;;;;;;;14.00;4.80;;;;;;;25.24;51.62;100142.22;5090207;28;20191;-63
2022/07/29 08:25:26;;;;;;;10.23;3.50;;;;;;;25.30;52.95;100136.84;5089492;28;20421;-63
2022/07/29 08:27:51;;;;;;;8.73;4.70;;;;;;;25.32;52.06;100134.31;5078666;28;20186;-63
2022/07/29 08:30:17;;;;;;;8.33;3.73;;;;;;;25.38;51.87;100141.28;5073163;28;20203;-63
2022/07/29 08:32:42;;;;;;;12.87;4.60;;;;;;;25.41;51.87;100143.28;5083068;28;20637;-63
2022/07/29 08:35:08;;;;;;;8.03;5.03;;;;;;;25.39;51.21;100140.81;5086871;28;20591;-63
2022/07/29 08:37:34;;;;;;;13.37;4.10;;;;;;;25.43;51.77;100138.72;5087758;28;20186;-63
2022/07/29 08:39:59;;;;;;;7.77;3.87;;;;;;;25.43;51.71;100141.63;5075600;28;20421;-63
2022/07/29 08:42:24;;;;;;;8.60;4.10;;;;;;;25.42;51.59;100144.94;5070608;28;20248;-63
2022/07/29 08:44:50;;;;;;;9.30;3.50;;;;;;;25.41;51.42;100143.28;5071687;28;20191;-64
2022/07/29 08:47:16;;;;;;;6.40;3.83;;;;;;;25.37;51.28;100143.34;5071898;28;20191;-64
2022/07/29 08:49:41;;;;;;;7.97;3.57;;;;;;;25.41;51.41;100137.50;5071631;28;20225;-64
2022/07/29 08:52:06;;;;;;;8.50;4.20;;;;;;;25.42;51.04;100139.97;5076150;28;20228;-64
2022/07/29 08:54:32;;;;;;;7.23;4.03;;;;;;;25.35;51.40;100151.63;5071723;28;20183;-64
2022/07/29 08:56:58;;;;;;;11.77;4.30;;;;;;;25.41;51.75;100143.28;5071276;28;20195;-64
2022/07/29 08:59:26;;;;;;;16.60;4.80;;;;;;;25.43;51.47;100141.63;5074821;28;20221;-64
2022/07/29 09:01:52;;;;;;;26.93;4.73;;;;;;;25.48;51.46;100138.25;5085850;28;20565;-64
2022/07/29 09:04:17;;;;;;;5.97;3.57;;;;;;;25.51;51.22;100142.34;5073735;28;20433;-64
2022/07/29 09:06:45;;;;;;;14.27;4.23;;;;;;;25.51;51.30;100137.41;5085155;28;20186;-64
2022/07/29 09:09:10;;;;;;;6.70;3.97;;;;;;;25.52;51.14;100141.91;5068350;28;20252;-64
2022/07/29 09:11:36;;;;;;;13.93;4.67;;;;;;;25.51;51.47;100140.28;5052155;28;20440;-64
2022/07/29 09:14:01;;;;;;;16.93;4.27;;;;;;;25.55;51.55;100143.97;5053639;28;20236;-64
2022/07/29 09:16:49;;;;;;;17.70;4.30;;;;;;;25.58;50.55;100148.06;5071439;28;20593;-64
2022/07/29 09:19:25;;;;;;;8.00;4.17;;;;;;;25.56;49.36;100139.81;5072302;28;20179;-64
2022/07/29 09:22:00;;;;;;;13.60;3.90;;;;;;;25.57;49.76;100147.22;5070014;28;20429;-64
2022/07/29 09:24:34;;;;;;;10.90;3.77;;;;;;;25.54;50.40;100142.28;5069797;28;20424;-64
2022/07/29 09:27:00;;;;;;;8.47;4.40;;;;;;;25.53;50.19;100143.56;5076219;28;20465;-64
2022/07/29 09:29:27;;;;;;;5.63;3.53;;;;;;;25.53;50.40;100140.66;5071910;28;20852;-64
2022/07/29 09:31:52;;;;;;;8.67;4.00;;;;;;;25.55;49.44;100138.16;5069297;28;20194;-64
2022/07/29 09:34:26;;;;;;;11.90;3.83;;;;;;;25.49;49.97;100139.88;5086505;28;20759;-64
2022/07/29 09:36:52;;;;;;;11.37;4.10;;;;;;;25.56;49.95;100139.81;5090995;28;20178;-64
2022/07/29 09:39:36;;;;;;;8.03;4.03;;;;;;;25.59;49.61;100141.81;5081781;28;20423;-64
2022/07/29 09:42:03;;;;;;;8.60;4.70;;;;;;;25.56;49.19;100136.91;5069503;28;20799;-64
2022/07/29 09:44:47;;;;;;;7.77;4.10;;;;;;;25.60;50.11;100142.66;5069451;28;20417;-64
2022/07/29 09:47:13;;;;;;;8.77;3.60;;;;;;;25.63;50.08;100139.69;5087072;28;20428;-64
2022/07/29 09:49:54;;;;;;;8.30;4.10;;;;;;;25.60;49.00;100129.03;5088073;28;20983;-64
2022/07/29 09:52:20;;;;;;;10.20;3.87;;;;;;;25.61;49.81;100124.03;5088241;28;20226;-64
2022/07/29 09:54:45;;;;;;;7.67;4.10;;;;;;;25.65;49.14;100136.38;5085389;28;21295;-64
2022/07/29 09:57:22;;;;;;;6.10;3.60;;;;;;;25.68;49.18;100126.81;5087019;28;20178;-64
2022/07/29 10:00:01;;;;;;;18.30;4.70;;;;;;;25.67;48.98;100128.91;5088335;28;20181;-64
2022/07/29 10:02:30;;;;;;;7.50;3.70;;;;;;;25.65;47.82;100125.63;5088119;28;20957;-64
2022/07/29 10:04:56;;;;;;;7.50;3.77;;;;;;;25.65;48.76;100125.63;5089359;28;20425;-64
2022/07/29 10:07:21;;;;;;;5.97;3.97;;;;;;;25.66;48.96;100121.50;5069990;28;20432;-64
2022/07/29 10:09:56;;;;;;;9.60;3.83;;;;;;;25.67;49.08;100116.50;5068856;28;20227;-64
2022/07/29 10:12:22;;;;;;;8.00;3.43;;;;;;;25.68;49.24;100113.19;5083207;28;20192;-64
2022/07/29 10:14:47;;;;;;;6.60;3.77;;;;;;;25.68;49.68;100113.19;5089033;28;20802;-64
2022/07/29 10:17:13;;;;;;;8.10;4.00;;;;;;;25.70;48.91;100104.09;5089153;28;20243;-64
2022/07/29 10:19:38;;;;;;;6.23;3.43;;;;;;;25.72;48.30;100102.41;5087106;28;20706;-64
2022/07/29 10:22:10;;;;;;;12.00;2.87;;;;;;;25.77;48.05;100099.03;5088055;28;20189;-64
2022/07/29 10:24:37;;;;;;;7.20;3.03;;;;;;;25.85;47.08;100097.66;5073543;28;20601;-64
2022/07/29 10:27:05;;;;;;;4.47;3.30;;;;;;;25.78;47.18;100091.16;5081544;28;20429;-64
2022/07/29 10:29:33;;;;;;;9.13;3.00;;;;;;;25.79;46.52;100092.81;5078108;28;20471;-64
2022/07/29 10:32:17;;;;;;;6.13;2.90;;;;;;;25.85;45.79;100099.72;5070269;28;20437;-64
2022/07/29 10:35:20;;;;;;;5.70;2.73;;;;;;;25.85;46.46;100099.72;5074321;28;20417;-64
2022/07/29 10:38:31;;;;;;;8.07;2.20;;;;;;;25.85;45.80;100094.75;5074403;28;20416;-64
2022/07/29 10:41:27;;;;;;;10.60;2.90;;;;;;;25.86;45.33;100087.72;5060065;28;20757;-64
2022/07/29 10:44:06;;;;;;;4.57;2.27;;;;;;;25.89;44.20;100083.16;5082275;28;20433;-64
2022/07/29 10:46:36;;;;;;;3.83;2.27;;;;;;;25.86;45.27;100078.22;5084233;28;20416;-64
2022/07/29 10:49:08;;;;;;;5.03;2.03;;;;;;;25.91;43.81;100071.94;5069887;28;20585;-64
2022/07/29 10:51:56;;;;;;;7.87;2.47;;;;;;;25.96;42.53;100081.00;5075332;28;20832;-64
2022/07/29 10:54:44;;;;;;;7.80;2.53;;;;;;;26.02;42.34;100087.94;5077824;28;20497;-64
2022/07/29 10:57:26;;;;;;;4.80;2.97;;;;;;;25.95;43.18;100090.91;5088816;28;20439;-64
2022/07/29 11:00:14;;;;;;;8.53;2.83;;;;;;;25.98;42.22;100092.94;5091610;28;20416;-64
2022/07/29 11:02:39;;;;;;;6.53;2.33;;;;;;;25.93;43.28;100089.72;5086709;28;20419;-64
2022/07/29 11:05:11;;;;;;;3.70;2.10;;;;;;;25.89;43.41;100086.84;5073805;28;21021;-64
2022/07/29 11:07:37;;;;;;;6.63;2.50;;;;;;;25.89;42.92;100092.63;5073506;28;20187;-64
2022/07/29 11:10:15;;;;;;;6.40;2.00;;;;;;;25.96;42.55;100089.69;5071915;28;20798;-64
2022/07/29 11:12:40;;;;;;;11.23;2.70;;;;;;;25.86;43.67;100096.41;5073528;28;20265;-64
2022/07/29 11:15:12;;;;;;;9.47;2.20;;;;;;;25.87;43.49;100098.03;5073446;28;20606;-64
2022/07/29 11:17:52;;;;;;;7.80;2.53;;;;;;;25.84;44.06;100093.13;5073559;28;20248;-64
2022/07/29 11:20:44;;;;;;;8.60;2.20;;;;;;;25.90;44.01;100091.38;5073640;28;20413;-64
2022/07/29 11:23:19;;;;;;;4.27;2.63;;;;;;;25.91;43.97;100093.06;5056114;28;20485;-64
2022/07/29 11:26:04;;;;;;;4.13;2.17;;;;;;;25.94;44.30;100086.38;5075354;28;20412;-64
2022/07/29 11:28:30;;;;;;;8.30;2.40;;;;;;;25.99;43.71;100100.34;5079561;28;20817;-64
2022/07/29 11:30:55;;;;;;;4.20;2.30;;;;;;;25.95;43.89;100099.59;5073220;28;20464;-64
2022/07/29 11:33:31;;;;;;;3.90;2.30;;;;;;;25.88;44.53;100101.75;5082024;28;20255;-64
2022/07/29 11:36:10;;;;;;;6.60;2.20;;;;;;;25.86;44.46;100093.53;5093482;28;20174;-64
2022/07/29 11:38:36;;;;;;;11.87;2.20;;;;;;;25.83;44.54;100091.50;5087878;28;20429;-64